Time;durP1;ratioP1;P1;durP2;ratioP2;P2;SDS_P1;SDS_P2;PMS_P1;PMS_P2;Temp;Humidity;BMP_temperature;BMP_pressure;BME280_temperature;BME280_humidity;BME280_pressure;Samples;Min_cycle;Max_cycle;Signal;HPM_P1;HPM_P2
2023/01/09 00:02:10;;;;;;;1.00;0.57;;;;;;;-140.72;100.00;53204.63;5111095;27;20034;-72
2023/01/09 00:04:35;;;;;;;1.95;0.63;;;;;;;-140.72;100.00;53172.16;5119113;27;20035;-72
2023/01/09 00:07:01;;;;;;;0.60;0.45;;;;;;;-140.72;100.00;53180.25;5125087;27;20102;-72
2023/01/09 00:09:26;;;;;;;0.90;0.55;;;;;;;-140.72;100.00;53168.09;5126246;27;20039;-71
2023/01/09 00:11:53;;;;;;;6.43;1.00;;;;;;;-140.72;100.00;53206.66;5119116;27;20023;-71
2023/01/09 00:14:21;;;;;;;2.70;0.50;;;;;;;-140.72;100.00;53174.19;5115967;27;20020;-70
2023/01/09 00:16:46;;;;;;;0.93;0.60;;;;;;;-140.72;100.00;53188.38;5122477;27;20069;-73
2023/01/09 00:19:12;;;;;;;0.95;0.80;;;;;;;-140.72;100.00;53184.31;5122700;27;20084;-71
2023/01/09 00:21:40;;;;;;;3.83;0.82;;;;;;;-140.72;100.00;53208.69;5123989;27;20023;-74
2023/01/09 00:24:06;;;;;;;5.93;0.70;;;;;;;-140.72;100.00;53186.34;5127447;27;20054;-72
2023/01/09 00:26:33;;;;;;;1.40;0.60;;;;;;;-140.72;100.00;53186.34;5122132;27;20031;-74
2023/01/09 00:28:58;;;;;;;1.95;0.75;;;;;;;-140.72;100.00;53166.06;5121972;27;20035;-72
2023/01/09 00:31:24;;;;;;;0.82;0.40;;;;;;;-140.72;100.00;53212.75;5124022;27;20046;-71
2023/01/09 00:34:01;;;;;;;0.95;0.40;;;;;;;-140.72;100.00;53162.00;5101128;28;20052;-73
2023/01/09 00:36:27;;;;;;;0.93;0.50;;;;;;;-140.72;100.00;53231.00;5099446;28;20036;-70
2023/01/09 00:38:53;;;;;;;1.25;0.70;;;;;;;-140.72;100.00;53210.72;5101108;28;20128;-72
2023/01/09 00:41:41;;;;;;;5.45;0.65;;;;;;;-140.72;100.00;53216.78;5102919;28;20447;-72
2023/01/09 00:44:19;;;;;;;1.58;0.70;;;;;;;-140.72;100.00;53190.41;5103299;28;20398;-71
2023/01/09 00:46:48;;;;;;;0.90;0.40;;;;;;;-140.72;100.00;53202.59;5102732;28;20118;-70
2023/01/09 00:49:14;;;;;;;;;;;;;;;-140.72;100.00;53233.03;5104603;28;20028;-72
2023/01/09 00:51:41;;;;;;;1.55;0.63;;;;;;;-140.72;100.00;53210.72;5100629;27;19920;-72
2023/01/09 00:54:08;;;;;;;4.00;0.93;;;;;;;-140.72;100.00;53216.78;5103696;28;20507;-71
2023/01/09 00:56:34;;;;;;;2.15;0.98;;;;;;;-140.72;100.00;53194.47;5094449;28;20020;-72
2023/01/09 00:59:01;;;;;;;1.95;0.90;;;;;;;-140.72;100.00;53224.91;5096691;28;20020;-72
2023/01/09 01:01:26;;;;;;;2.00;0.95;;;;;;;-140.72;100.00;53188.38;5099590;28;20077;-73
2023/01/09 01:03:51;;;;;;;1.63;0.70;;;;;;;-140.72;100.00;53196.50;5100709;28;20460;-72
2023/01/09 01:09:02;;;;;;;0.93;0.65;;;;;;;-140.72;100.00;53208.69;5098790;28;20073;-71
2023/01/09 01:11:27;;;;;;;3.83;0.98;;;;;;;-140.72;100.00;53206.66;5101574;28;20061;-72
2023/01/09 01:13:52;;;;;;;2.20;0.90;;;;;;;-140.72;100.00;53249.28;5100943;28;20495;-71
2023/01/09 01:16:18;;;;;;;3.95;1.17;;;;;;;-140.72;100.00;53218.81;5099016;28;20027;-72
2023/01/09 01:18:44;;;;;;;3.13;1.17;;;;;;;-140.72;100.00;53226.94;5100648;28;20885;-72
2023/01/09 01:21:12;;;;;;;2.35;1.20;;;;;;;-140.72;100.00;53259.41;5099185;28;20032;-72
2023/01/09 01:23:38;;;;;;;0.82;0.60;;;;;;;-140.72;100.00;53186.34;5099888;28;20023;-72
2023/01/09 01:26:11;;;;;;;1.58;1.15;;;;;;;-140.72;100.00;53235.06;5101049;28;20035;-75
2023/01/09 01:28:37;;;;;;;2.13;1.02;;;;;;;-140.72;100.00;53162.00;5092248;28;20024;-71
2023/01/09 01:31:04;;;;;;;3.70;1.08;;;;;;;-140.72;100.00;53206.66;5096978;28;20069;-71
2023/01/09 01:33:29;;;;;;;2.75;1.65;;;;;;;-140.72;100.00;53164.03;5113868;27;20054;-71
2023/01/09 01:36:07;;;;;;;3.38;1.08;;;;;;;-140.72;100.00;53206.66;5120891;27;20404;-72
2023/01/09 01:38:33;;;;;;;5.95;1.67;;;;;;;-140.72;100.00;53198.53;5123462;27;20019;-76
2023/01/09 01:41:01;;;;;;;1.55;0.80;;;;;;;-140.72;100.00;53176.22;5125030;27;20027;-71
2023/01/09 01:43:50;;;;;;;3.05;1.00;;;;;;;-140.72;100.00;53162.00;5122791;27;20030;-71
2023/01/09 01:46:19;;;;;;;1.77;0.60;;;;;;;-140.72;100.00;53208.69;5121749;27;20169;-72
2023/01/09 01:48:46;;;;;;;2.97;1.27;;;;;;;-140.72;100.00;53180.25;5122632;28;20432;-71
2023/01/09 01:51:15;;;;;;;1.73;0.80;;;;;;;-140.72;100.00;53204.63;5118584;28;20027;-71
2023/01/09 01:53:50;;;;;;;1.83;1.00;;;;;;;-140.72;100.00;53188.38;5121556;28;20027;-74
2023/01/09 01:56:36;;;;;;;2.22;1.15;;;;;;;-140.72;100.00;53212.75;5121714;28;20028;-73
2023/01/09 01:59:23;;;;;;;5.25;1.48;;;;;;;-140.72;100.00;53184.31;5119461;28;20035;-73
2023/01/09 02:01:55;;;;;;;5.80;2.05;;;;;;;-140.72;100.00;53212.75;5120105;28;20020;-72
2023/01/09 02:04:20;;;;;;;3.47;1.10;;;;;;;-140.72;100.00;53170.13;5119184;28;20077;-74
2023/01/09 02:06:49;;;;;;;6.82;1.25;;;;;;;-140.72;100.00;53194.47;5119335;28;20031;-73
2023/01/09 02:09:17;;;;;;;4.25;1.33;;;;;;;-140.72;100.00;53182.28;5120327;28;20026;-74
2023/01/09 02:11:46;;;;;;;5.45;1.63;;;;;;;-140.72;100.00;53202.59;5120287;28;20062;-72
2023/01/09 02:14:14;;;;;;;2.40;1.40;;;;;;;-140.72;100.00;53162.00;5120979;28;20384;-72
2023/01/09 02:16:55;;;;;;;2.38;1.30;;;;;;;-140.72;100.00;53162.00;5116704;28;20478;-72
2023/01/09 02:19:44;;;;;;;3.83;2.25;;;;;;;-140.72;100.00;53214.78;5117991;28;20027;-71
2023/01/09 02:22:31;;;;;;;4.32;2.00;;;;;;;-140.72;100.00;53192.44;5115546;28;20063;-71
2023/01/09 02:25:21;;;;;;;4.50;1.33;;;;;;;-140.72;100.00;53233.03;5114400;28;20061;-71
2023/01/09 02:28:14;;;;;;;;;;;;;;;-140.72;100.00;53253.31;5117741;28;20447;-73
2023/01/09 02:30:44;;;;;;;4.35;1.23;;;;;;;-140.72;100.00;53178.22;5116048;28;19911;-71
2023/01/09 02:33:27;;;;;;;3.63;1.65;;;;;;;-140.72;100.00;53202.59;5119653;28;20043;-70
2023/01/09 02:36:29;;;;;;;5.28;1.63;;;;;;;-140.72;100.00;53206.66;5121125;28;20041;-70
2023/01/09 02:39:03;;;;;;;2.47;1.27;;;;;;;-140.72;100.00;53200.56;5118368;28;20079;-73
2023/01/09 02:41:35;;;;;;;4.97;1.70;;;;;;;-140.72;100.00;53186.34;5121618;28;20035;-70
2023/01/09 02:44:20;;;;;;;2.95;1.50;;;;;;;-140.72;100.00;53226.94;5118888;28;20054;-72
2023/01/09 02:47:00;;;;;;;4.13;1.58;;;;;;;-140.72;100.00;53174.19;5117803;28;20019;-75
2023/01/09 02:49:26;;;;;;;2.40;1.30;;;;;;;-140.72;100.00;53190.41;5126622;27;20024;-73
2023/01/09 02:52:01;;;;;;;2.13;1.10;;;;;;;-140.72;100.00;53214.78;5124658;27;20027;-72
2023/01/09 02:54:34;;;;;;;2.10;1.42;;;;;;;-140.72;100.00;53188.38;5124105;27;20084;-74
2023/01/09 02:57:13;;;;;;;9.00;1.73;;;;;;;-140.72;100.00;53231.00;5124527;27;20020;-71
2023/01/09 02:59:51;;;;;;;2.73;1.20;;;;;;;-140.72;100.00;53210.72;5121067;27;20023;-72
2023/01/09 03:02:41;;;;;;;3.72;0.95;;;;;;;-140.72;100.00;53200.56;5123311;27;20474;-72
2023/01/09 03:05:28;;;;;;;6.35;1.55;;;;;;;-140.72;100.00;53218.81;5123475;27;20464;-72
2023/01/09 03:08:03;;;;;;;4.60;1.63;;;;;;;-140.72;100.00;53198.53;5130801;27;20035;-73
2023/01/09 03:10:36;;;;;;;1.92;1.10;;;;;;;-140.72;100.00;53237.09;5122144;27;20026;-72
2023/01/09 03:13:04;;;;;;;1.60;0.98;;;;;;;-140.72;100.00;53239.13;5121678;27;20114;-75
2023/01/09 03:15:36;;;;;;;1.15;0.75;;;;;;;-140.72;100.00;53198.53;5118923;27;20055;-71
2023/01/09 03:18:04;;;;;;;5.03;1.67;;;;;;;-140.72;100.00;53233.03;5121489;27;20107;-75
2023/01/09 03:20:31;;;;;;;2.38;1.00;;;;;;;-140.72;100.00;53208.69;5120418;27;20047;-73
2023/01/09 03:23:00;;;;;;;3.38;1.00;;;;;;;-140.72;100.00;53198.53;5120429;27;20034;-72
2023/01/09 03:25:27;;;;;;;5.33;1.23;;;;;;;-140.72;100.00;53222.88;5126044;27;20326;-71
2023/01/09 03:27:58;;;;;;;7.80;1.30;;;;;;;-140.72;100.00;53194.47;5122059;27;20965;-75
2023/01/09 03:30:25;;;;;;;4.40;1.10;;;;;;;-140.72;100.00;53245.22;5118849;27;20062;-70
2023/01/09 03:32:50;;;;;;;1.95;1.00;;;;;;;-140.72;100.00;53206.66;5113929;27;20300;-76
2023/01/09 03:35:16;;;;;;;4.00;1.60;;;;;;;-140.72;100.00;53192.44;5103499;28;20270;-70
2023/01/09 03:37:41;;;;;;;11.18;1.38;;;;;;;-140.72;100.00;53208.69;5103117;28;20072;-73
2023/01/09 03:40:07;;;;;;;2.53;1.10;;;;;;;-140.72;100.00;53251.31;5093495;28;20028;-76
2023/01/09 03:42:33;;;;;;;5.88;1.05;;;;;;;-140.72;100.00;53204.63;5101581;28;20126;-74
2023/01/09 03:45:01;;;;;;;4.53;1.48;;;;;;;-140.72;100.00;53216.78;5104318;28;20045;-71
2023/01/09 03:47:26;;;;;;;2.00;1.23;;;;;;;-140.72;100.00;53212.75;5105810;28;20024;-72
2023/01/09 03:49:51;;;;;;;3.05;0.95;;;;;;;-140.72;100.00;53204.63;5100520;28;20045;-71
2023/01/09 03:52:17;;;;;;;3.42;0.80;;;;;;;-140.72;100.00;53212.75;5100698;28;20020;-72
2023/01/09 03:54:42;;;;;;;2.53;1.20;;;;;;;-140.72;100.00;53186.34;5089408;28;20232;-72
2023/01/09 03:57:08;;;;;;;2.28;1.00;;;;;;;-140.72;100.00;53243.19;5104350;28;20020;-73
2023/01/09 03:59:33;;;;;;;2.13;1.48;;;;;;;-140.72;100.00;53226.94;5100597;28;20039;-72
2023/01/09 04:01:58;;;;;;;1.70;0.98;;;;;;;-140.72;100.00;53259.41;5099771;28;20016;-71
2023/01/09 04:04:24;;;;;;;5.57;1.95;;;;;;;-140.72;100.00;53218.81;5100306;28;20401;-73
2023/01/09 04:06:49;;;;;;;2.67;1.00;;;;;;;-140.72;100.00;53206.66;5105001;28;20108;-71
2023/01/09 04:09:15;;;;;;;2.83;1.10;;;;;;;-140.72;100.00;53216.78;5101122;28;20016;-72
2023/01/09 04:11:40;;;;;;;4.45;1.15;;;;;;;-140.72;100.00;53208.69;5103991;28;20051;-72
2023/01/09 04:14:11;;;;;;;4.78;1.45;;;;;;;-140.72;100.00;53239.13;5094807;28;20024;-76
2023/01/09 04:16:36;;;;;;;3.08;0.98;;;;;;;-140.72;100.00;53216.78;5100924;28;20031;-72
2023/01/09 04:19:01;;;;;;;2.90;1.55;;;;;;;-140.72;100.00;53241.16;5097092;28;20012;-72
2023/01/09 04:21:27;;;;;;;5.13;1.10;;;;;;;-140.72;100.00;53224.91;5102914;28;20363;-72
2023/01/09 04:23:52;;;;;;;1.77;0.90;;;;;;;-140.72;100.00;53206.66;5100670;28;20066;-72
2023/01/09 04:26:17;;;;;;;2.70;1.05;;;;;;;-140.72;100.00;53182.28;5099363;28;20023;-74
2023/01/09 04:28:46;;;;;;;3.28;1.42;;;;;;;-140.72;100.00;53202.59;5100206;28;20052;-75
2023/01/09 04:31:15;;;;;;;4.07;0.98;;;;;;;-140.72;100.00;53218.81;5102168;28;20436;-71
2023/01/09 04:33:40;;;;;;;1.95;1.20;;;;;;;-140.72;100.00;53190.41;5117479;27;20059;-71
2023/01/09 04:36:06;;;;;;;2.45;0.98;;;;;;;-140.72;100.00;53222.88;5123142;27;20472;-72
2023/01/09 04:38:34;;;;;;;5.00;1.42;;;;;;;-140.72;100.00;53178.22;5124013;27;20037;-75
2023/01/09 04:41:00;;;;;;;4.03;0.80;;;;;;;-140.72;100.00;53184.31;5124314;27;20459;-72
2023/01/09 04:43:26;;;;;;;3.75;1.20;;;;;;;-140.72;100.00;53202.59;5123759;27;20106;-71
2023/01/09 04:45:51;;;;;;;2.03;0.80;;;;;;;-140.72;100.00;53198.53;5122214;27;20063;-71
2023/01/09 04:48:16;;;;;;;1.30;0.85;;;;;;;-140.72;100.00;53233.03;5116822;27;20015;-71
2023/01/09 04:50:42;;;;;;;3.05;1.73;;;;;;;-140.72;100.00;53184.31;5125176;27;20035;-72
2023/01/09 04:53:07;;;;;;;1.85;0.90;;;;;;;-140.72;100.00;53182.28;5118796;27;20466;-71
2023/01/09 04:55:33;;;;;;;2.13;1.10;;;;;;;-140.72;100.00;53198.53;5118961;27;20035;-72
2023/01/09 04:57:58;;;;;;;3.67;1.02;;;;;;;-140.72;100.00;53226.94;5122075;27;20454;-71
2023/01/09 05:00:24;;;;;;;2.45;1.17;;;;;;;-140.72;100.00;53228.97;5118382;27;20019;-71
2023/01/09 05:02:49;;;;;;;2.63;1.23;;;;;;;-140.72;100.00;53235.06;5118837;27;20019;-72
2023/01/09 05:05:14;;;;;;;2.40;1.50;;;;;;;-140.72;100.00;53200.56;5116398;27;20028;-70
2023/01/09 05:07:43;;;;;;;1.55;0.80;;;;;;;-140.72;100.00;53218.81;5122668;27;20035;-72
2023/01/09 05:10:09;;;;;;;1.13;0.75;;;;;;;-140.72;100.00;53157.94;5119332;27;20039;-73
2023/01/09 05:12:35;;;;;;;1.85;0.73;;;;;;;-140.72;100.00;53190.41;5112338;27;20045;-71
2023/01/09 05:15:05;;;;;;;3.58;1.40;;;;;;;-140.72;100.00;53210.72;5117135;27;20024;-76
2023/01/09 05:17:31;;;;;;;1.52;1.08;;;;;;;-140.72;100.00;53224.91;5116668;27;20043;-73
2023/01/09 05:19:56;;;;;;;5.07;1.20;;;;;;;-140.72;100.00;53214.78;5117637;27;20058;-73
2023/01/09 05:22:21;;;;;;;5.00;1.90;;;;;;;-140.72;100.00;53198.53;5118870;27;20450;-73
2023/01/09 05:24:47;;;;;;;4.72;1.50;;;;;;;-140.72;100.00;53218.81;5114626;27;20074;-71
2023/01/09 05:27:12;;;;;;;5.88;1.63;;;;;;;-140.72;100.00;53239.13;5116582;27;20019;-71
2023/01/09 05:29:43;;;;;;;2.67;1.65;;;;;;;-140.72;100.00;53216.78;5116743;27;20538;-70
2023/01/09 05:32:08;;;;;;;6.65;1.90;;;;;;;-140.72;100.00;53202.59;5123806;27;20060;-72
2023/01/09 05:34:37;;;;;;;5.90;1.35;;;;;;;-140.72;100.00;53222.88;5118805;27;20102;-71
2023/01/09 05:37:02;;;;;;;4.28;1.20;;;;;;;-140.72;100.00;53206.66;5120435;27;20023;-71
2023/01/09 05:39:27;;;;;;;5.65;1.23;;;;;;;-140.72;100.00;53216.78;5120699;27;20011;-71
2023/01/09 05:41:53;;;;;;;5.38;1.63;;;;;;;-140.72;100.00;53220.84;5119371;27;20389;-71
2023/01/09 05:44:18;;;;;;;3.10;1.13;;;;;;;-140.72;100.00;53190.41;5126415;27;20104;-71
2023/01/09 05:46:44;;;;;;;5.82;2.03;;;;;;;-140.72;100.00;53235.06;5117291;27;20034;-71
2023/01/09 05:49:12;;;;;;;5.93;1.45;;;;;;;-140.72;100.00;53224.91;5116237;28;20047;-71
2023/01/09 05:51:38;;;;;;;2.03;0.90;;;;;;;-140.72;100.00;53214.78;5127085;28;20023;-71
2023/01/09 05:54:04;;;;;;;3.28;1.08;;;;;;;-140.72;100.00;53214.78;5117087;28;20030;-71
2023/01/09 05:56:29;;;;;;;1.90;1.10;;;;;;;-140.72;100.00;53190.41;5117432;28;20393;-71
2023/01/09 05:58:55;;;;;;;4.07;1.40;;;;;;;-140.72;100.00;53204.63;5124140;28;20038;-70
2023/01/09 06:01:20;;;;;;;2.58;1.25;;;;;;;-140.72;100.00;53231.00;5122454;28;20054;-70
2023/01/09 06:03:49;;;;;;;2.60;1.33;;;;;;;-140.72;100.00;53202.59;5102295;28;20035;-73
2023/01/09 06:06:14;;;;;;;5.55;1.30;;;;;;;-140.72;100.00;53206.66;5118370;28;20030;-71
2023/01/09 06:08:39;;;;;;;5.30;1.27;;;;;;;-140.72;100.00;53222.88;5118678;28;20089;-70
2023/01/09 06:11:05;;;;;;;3.63;1.30;;;;;;;-140.72;100.00;53206.66;5122219;28;20034;-70
2023/01/09 06:13:30;;;;;;;1.30;1.08;;;;;;;-140.72;100.00;53204.63;5114160;28;20023;-71
2023/01/09 06:15:58;;;;;;;4.38;1.23;;;;;;;-140.72;100.00;53208.69;5111068;28;20019;-70
2023/01/09 06:18:23;;;;;;;4.40;1.77;;;;;;;-140.72;100.00;53210.72;5117181;28;20023;-71
2023/01/09 06:20:49;;;;;;;2.80;1.52;;;;;;;-140.72;100.00;53237.09;5115276;28;20036;-71
2023/01/09 06:23:14;;;;;;;4.18;1.10;;;;;;;-140.72;100.00;53192.44;5115197;27;20019;-72
2023/01/09 06:25:40;;;;;;;4.70;1.40;;;;;;;-140.72;100.00;53224.91;5122575;27;20027;-71
2023/01/09 06:28:05;;;;;;;1.70;1.13;;;;;;;-140.72;100.00;53226.94;5124283;27;20015;-71
2023/01/09 06:30:31;;;;;;;1.70;0.73;;;;;;;-140.72;100.00;53214.78;5121926;27;20024;-70
2023/01/09 06:32:56;;;;;;;1.80;0.98;;;;;;;-140.72;100.00;53196.50;5127645;27;20078;-70
2023/01/09 06:35:21;;;;;;;3.40;1.50;;;;;;;-140.72;100.00;53166.06;5127939;27;20026;-70
2023/01/09 06:37:48;;;;;;;4.55;1.92;;;;;;;-140.72;100.00;53208.69;5128929;27;20023;-70
2023/01/09 06:40:14;;;;;;;2.35;1.23;;;;;;;-140.72;100.00;53196.50;5126517;27;20058;-71
2023/01/09 06:42:47;;;;;;;5.57;1.52;;;;;;;-140.72;100.00;53206.66;5120196;27;20463;-70
2023/01/09 06:45:13;;;;;;;2.40;1.35;;;;;;;-140.72;100.00;53212.75;5118416;27;20057;-73
2023/01/09 06:47:38;;;;;;;3.70;1.65;;;;;;;-140.72;100.00;53182.28;5123806;27;20011;-70
2023/01/09 06:50:05;;;;;;;3.45;1.27;;;;;;;-140.72;100.00;53222.88;5116360;27;20039;-70
2023/01/09 06:52:31;;;;;;;1.10;0.65;;;;;;;-140.72;100.00;53231.00;5120844;27;20313;-73
2023/01/09 06:54:59;;;;;;;6.45;1.92;;;;;;;-140.72;100.00;53253.31;5118546;27;20106;-70
2023/01/09 06:57:24;;;;;;;2.75;1.85;;;;;;;-140.72;100.00;53174.19;5118477;27;20038;-71
2023/01/09 06:59:49;;;;;;;2.78;1.30;;;;;;;-140.72;100.00;53190.41;5122679;27;20019;-70
2023/01/09 07:02:20;;;;;;;3.65;0.80;;;;;;;-140.72;100.00;53200.56;5118724;27;20022;-70
2023/01/09 07:04:45;;;;;;;2.78;0.70;;;;;;;-140.72;100.00;53202.59;5112422;27;20705;-70
2023/01/09 07:07:11;;;;;;;2.47;1.30;;;;;;;-140.72;100.00;53214.78;5120920;27;20050;-73
2023/01/09 07:09:37;;;;;;;1.77;0.98;;;;;;;-140.72;100.00;53208.69;5123481;27;20027;-70
2023/01/09 07:12:02;;;;;;;1.90;0.93;;;;;;;-140.72;100.00;53186.34;5119381;27;20039;-70
2023/01/09 07:14:28;;;;;;;5.35;1.25;;;;;;;-140.72;100.00;53200.56;5122302;27;20041;-71
2023/01/09 07:16:53;;;;;;;0.73;0.30;;;;;;;-140.72;100.00;53202.59;5114837;27;20030;-69
2023/01/09 07:19:19;;;;;;;4.43;0.68;;;;;;;-140.72;100.00;53214.78;5122189;27;20060;-71
2023/01/09 07:21:44;;;;;;;1.05;0.77;;;;;;;-140.72;100.00;53210.72;5114997;27;20031;-70
2023/01/09 07:24:09;;;;;;;2.88;0.88;;;;;;;-140.72;100.00;53190.41;5126403;27;20027;-71
2023/01/09 07:26:35;;;;;;;1.85;0.70;;;;;;;-140.72;100.00;53200.56;5120555;27;20201;-69
2023/01/09 07:29:00;;;;;;;1.10;0.32;;;;;;;-140.72;100.00;53198.53;5117919;27;20440;-70
2023/01/09 07:31:25;;;;;;;0.57;0.40;;;;;;;-140.72;100.00;53226.94;5121878;27;20112;-72
2023/01/09 07:33:51;;;;;;;0.93;0.35;;;;;;;-140.72;100.00;53206.66;5119957;27;20158;-69
2023/01/09 07:36:16;;;;;;;1.55;0.47;;;;;;;-140.72;100.00;53194.47;5120705;27;20373;-71
2023/01/09 07:38:42;;;;;;;0.73;0.43;;;;;;;-140.72;100.00;53239.13;5129439;27;20370;-72
2023/01/09 07:41:07;;;;;;;2.15;0.82;;;;;;;-140.72;100.00;53188.38;5124140;27;20038;-72
2023/01/09 07:43:32;;;;;;;1.33;0.38;;;;;;;-140.72;100.00;53214.78;5121452;27;20475;-74
2023/01/09 07:45:58;;;;;;;1.83;0.45;;;;;;;-140.72;100.00;53214.78;5126911;27;20023;-73
2023/01/09 07:48:23;;;;;;;1.38;0.60;;;;;;;-140.72;100.00;53180.25;5127624;27;20121;-73
2023/01/09 07:50:49;;;;;;;3.50;0.50;;;;;;;-140.72;100.00;53170.13;5129838;27;20023;-75
2023/01/09 07:53:14;;;;;;;2.25;0.50;;;;;;;-140.72;100.00;53204.63;5129336;27;20027;-72
2023/01/09 07:55:42;;;;;;;1.77;0.35;;;;;;;-140.72;100.00;53200.56;5123397;27;20038;-74
2023/01/09 07:58:10;;;;;;;2.00;0.50;;;;;;;-140.72;100.00;53157.94;5127996;27;20088;-72
2023/01/09 08:00:35;;;;;;;0.65;0.30;;;;;;;-140.72;100.00;53226.94;5124922;27;20035;-73
2023/01/09 08:03:01;;;;;;;4.07;0.38;;;;;;;-140.72;100.00;53214.78;5116622;27;20037;-73
2023/01/09 08:05:26;;;;;;;3.53;0.32;;;;;;;-140.72;100.00;53182.28;5123467;27;20018;-72
2023/01/09 08:07:51;;;;;;;5.57;0.52;;;;;;;-140.72;100.00;53170.13;5121416;27;20458;-73
2023/01/09 08:10:18;;;;;;;1.17;0.38;;;;;;;-140.72;100.00;53190.41;5129282;27;20023;-74
2023/01/09 08:12:45;;;;;;;0.80;0.40;;;;;;;-140.72;100.00;53184.31;5119447;27;20023;-73
2023/01/09 08:15:10;;;;;;;1.90;0.70;;;;;;;-140.72;100.00;53206.66;5133634;27;20019;-74
2023/01/09 08:17:36;;;;;;;2.15;0.65;;;;;;;-140.72;100.00;53206.66;5128351;27;20404;-77
2023/01/09 08:20:02;;;;;;;5.38;0.98;;;;;;;-140.72;100.00;53172.16;5119349;27;20062;-73
2023/01/09 08:22:27;;;;;;;1.13;0.52;;;;;;;-140.72;100.00;53190.41;5122822;27;20094;-73
2023/01/09 08:24:52;;;;;;;1.95;0.60;;;;;;;-140.72;100.00;53200.56;5130921;27;20115;-75
2023/01/09 08:27:18;;;;;;;2.15;0.70;;;;;;;-140.72;100.00;53206.66;5126984;27;20024;-73
2023/01/09 08:29:43;;;;;;;8.07;1.40;;;;;;;-140.72;100.00;53151.84;5116845;27;20023;-73
2023/01/09 08:32:09;;;;;;;1.92;0.68;;;;;;;-140.72;100.00;53194.47;5124589;27;20468;-75
2023/01/09 08:34:34;;;;;;;14.00;0.88;;;;;;;-140.72;100.00;53206.66;5116898;27;20432;-76
2023/01/09 08:37:00;;;;;;;2.80;0.82;;;;;;;-140.72;100.00;53218.81;5123188;27;20451;-76
2023/01/09 08:39:25;;;;;;;7.95;1.05;;;;;;;-140.72;100.00;53210.72;5112404;27;20015;-71
2023/01/09 08:47:22;;;;;;;1.45;0.82;;;;;;;-140.72;100.00;53166.06;5125685;27;20030;-75
2023/01/09 08:49:47;;;;;;;2.70;0.93;;;;;;;-140.72;100.00;53141.69;5112708;27;20042;-73
2023/01/09 08:52:13;;;;;;;4.45;1.38;;;;;;;-140.72;100.00;53157.94;5123287;27;20090;-72
2023/01/09 08:54:41;;;;;;;8.70;1.35;;;;;;;-140.72;100.00;53184.31;5122191;27;20011;-73
2023/01/09 08:57:07;;;;;;;9.13;1.45;;;;;;;-140.72;100.00;53166.06;5116137;27;20134;-72
2023/01/09 08:59:33;;;;;;;3.35;0.80;;;;;;;-140.72;100.00;53170.13;5125145;27;20102;-75
2023/01/09 09:02:03;;;;;;;9.45;1.48;;;;;;;-140.72;100.00;53164.03;5115540;27;20076;-75
2023/01/09 09:04:28;;;;;;;1.75;0.82;;;;;;;-140.72;100.00;53198.53;5111997;28;20015;-74
2023/01/09 09:06:53;;;;;;;2.22;0.77;;;;;;;-140.72;100.00;53222.88;5110945;27;20119;-75
2023/01/09 09:09:19;;;;;;;4.50;0.60;;;;;;;-140.72;100.00;53200.56;5121321;27;20034;-73
2023/01/09 09:11:44;;;;;;;5.22;0.90;;;;;;;-140.72;100.00;53174.19;5122485;27;20019;-73
2023/01/09 09:16:56;;;;;;;5.75;1.38;;;;;;;-140.72;100.00;53194.47;5117850;27;20118;-74
2023/01/09 09:19:22;;;;;;;3.63;1.33;;;;;;;-140.72;100.00;53194.47;5122177;27;20023;-73
2023/01/09 09:21:47;;;;;;;5.13;0.55;;;;;;;-140.72;100.00;53135.63;5121334;27;20019;-72
2023/01/09 09:24:12;;;;;;;9.63;1.23;;;;;;;-140.72;100.00;53153.88;5111877;28;20019;-77
2023/01/09 09:26:38;;;;;;;3.92;0.73;;;;;;;-140.72;100.00;53151.84;5124375;27;20055;-72
2023/01/09 09:29:03;;;;;;;7.13;1.35;;;;;;;-140.72;100.00;53180.25;5113452;27;20015;-73
2023/01/09 09:31:29;;;;;;;2.90;0.88;;;;;;;-140.72;100.00;53166.06;5111414;28;20028;-72
2023/01/09 09:33:55;;;;;;;6.20;1.23;;;;;;;-140.72;100.00;53162.00;5116103;27;20063;-73
2023/01/09 09:36:20;;;;;;;5.22;1.65;;;;;;;-140.72;100.00;53147.78;5115030;27;20114;-72
2023/01/09 09:38:46;;;;;;;9.25;1.38;;;;;;;-140.72;100.00;53180.25;5120991;27;20102;-73
2023/01/09 09:44:46;;;;;;;7.10;1.00;;;;;;;-140.72;100.00;53143.72;5128008;27;20370;-73
2023/01/09 09:47:37;;;;;;;3.97;1.02;;;;;;;-140.72;100.00;53153.88;5119170;27;20382;-72
2023/01/09 09:50:02;;;;;;;4.13;0.70;;;;;;;-140.72;100.00;53141.69;5119707;27;20098;-73
2023/01/09 09:52:59;;;;;;;2.03;0.57;;;;;;;-140.72;100.00;53159.97;5125358;28;20123;-73
2023/01/09 09:55:31;;;;;;;2.45;0.80;;;;;;;-140.72;100.00;53141.69;5120699;28;20066;-74
2023/01/09 09:58:01;;;;;;;3.53;0.60;;;;;;;-140.72;100.00;53174.19;5125644;27;20019;-71
2023/01/09 10:00:27;;;;;;;5.55;0.68;;;;;;;-140.72;100.00;53182.28;5122717;27;20055;-72
2023/01/09 10:03:03;;;;;;;9.25;1.73;;;;;;;-140.72;100.00;53188.38;5130712;27;20084;-73
2023/01/09 10:05:33;;;;;;;3.05;1.15;;;;;;;-140.72;100.00;53155.91;5130601;27;20103;-73
2023/01/09 10:08:02;;;;;;;;;;;;;;;-140.72;100.00;53145.75;5124118;27;20076;-77
2023/01/09 10:10:42;;;;;;;0.30;0.22;;;;;;;-140.72;100.00;53141.69;5127269;27;19908;-73
2023/01/09 10:16:10;;;;;;;6.53;1.05;;;;;;;-140.72;100.00;53186.34;5124033;27;20034;-72
2023/01/09 10:19:06;;;;;;;1.00;0.70;;;;;;;-140.72;100.00;53141.69;5126160;27;20023;-74
2023/01/09 10:21:54;;;;;;;0.68;0.52;;;;;;;-140.72;100.00;53147.78;5121265;27;21052;-73
2023/01/09 10:24:34;;;;;;;3.35;0.93;;;;;;;-140.72;100.00;53162.00;5123623;27;20027;-73
2023/01/09 10:27:13;;;;;;;1.95;0.90;;;;;;;-140.72;100.00;53141.69;5125790;27;20392;-73
2023/01/09 10:30:11;;;;;;;2.55;0.70;;;;;;;-140.72;100.00;53125.47;5127927;27;20019;-77
2023/01/09 10:33:10;;;;;;;2.38;1.15;;;;;;;-140.72;100.00;53186.34;5102834;27;20063;-73
2023/01/09 10:36:08;;;;;;;1.58;0.70;;;;;;;-140.72;100.00;53162.00;5125108;27;20114;-73
2023/01/09 10:38:38;;;;;;;2.63;0.95;;;;;;;-140.72;100.00;53121.41;5079160;28;20509;-74
2023/01/09 10:41:11;;;;;;;6.82;0.90;;;;;;;-140.72;100.00;53155.91;5122869;27;20023;-73
2023/01/09 10:43:41;;;;;;;3.25;0.82;;;;;;;-140.72;100.00;53159.97;5125912;27;20058;-73
2023/01/09 10:46:30;;;;;;;5.97;1.20;;;;;;;-140.72;100.00;53145.75;5121937;27;20102;-73
2023/01/09 10:48:59;;;;;;;4.30;0.90;;;;;;;-140.72;100.00;53145.75;5122445;27;20061;-72
2023/01/09 10:51:34;;;;;;;6.00;1.38;;;;;;;-140.72;100.00;53157.94;5120791;27;20031;-71
2023/01/09 10:54:00;;;;;;;3.15;0.75;;;;;;;-140.72;100.00;53135.63;5118115;27;20102;-73
2023/01/09 10:56:38;;;;;;;6.38;1.10;;;;;;;-140.72;100.00;53113.28;5132364;27;20126;-73
2023/01/09 10:59:04;;;;;;;3.05;1.10;;;;;;;-140.72;100.00;53168.09;5133917;27;20430;-75
2023/01/09 11:01:38;;;;;;;1.75;0.93;;;;;;;-140.72;100.00;53145.75;5115126;28;20111;-77
2023/01/09 11:04:19;;;;;;;2.65;0.98;;;;;;;-140.72;100.00;53117.34;5120808;27;20127;-73
2023/01/09 11:06:54;;;;;;;2.83;0.77;;;;;;;-140.72;100.00;53143.72;5132374;27;20425;-73
2023/01/09 11:09:20;;;;;;;3.47;1.35;;;;;;;-140.72;100.00;53157.94;5127508;27;20420;-70
2023/01/09 11:11:46;;;;;;;4.85;1.42;;;;;;;-140.72;100.00;53145.75;5123898;27;20035;-72
2023/01/09 11:14:26;;;;;;;1.13;1.00;;;;;;;-140.72;100.00;53111.25;5122942;27;20345;-73
2023/01/09 11:16:57;;;;;;;5.43;0.65;;;;;;;-140.72;100.00;53082.84;5125921;27;20118;-73
2023/01/09 11:19:24;;;;;;;2.55;0.63;;;;;;;-140.72;100.00;53133.59;5124413;27;20019;-72
2023/01/09 11:21:50;;;;;;;5.30;0.80;;;;;;;-140.72;100.00;53121.41;5125310;27;20026;-73
2023/01/09 11:24:26;;;;;;;1.38;0.80;;;;;;;-140.72;100.00;53129.53;5129699;27;20027;-73
2023/01/09 11:27:12;;;;;;;5.57;1.30;;;;;;;-140.72;100.00;53147.78;5130053;27;20037;-76
2023/01/09 11:29:41;;;;;;;1.70;1.00;;;;;;;-140.72;100.00;53113.28;5133325;27;20033;-72
2023/01/09 11:32:21;;;;;;;2.40;1.10;;;;;;;-140.72;100.00;53145.75;5120491;27;20111;-72
2023/01/09 11:34:47;;;;;;;1.55;0.82;;;;;;;-140.72;100.00;53111.25;5132316;27;20046;-72
2023/01/09 11:37:22;;;;;;;2.20;0.82;;;;;;;-140.72;100.00;53090.97;5124263;27;20154;-74